createdAt,value
2019-05-25T00:05:55.488Z,0.00
2019-05-25T00:20:55.687Z,0.00
2019-05-25T00:35:55.874Z,0.00
2019-05-25T00:50:56.209Z,0.00
2019-05-25T01:05:56.528Z,0.00
2019-05-25T01:20:56.729Z,0.00
2019-05-25T01:35:56.955Z,0.00
2019-05-25T01:50:57.179Z,0.00
2019-05-25T02:05:57.304Z,0.00
2019-05-25T02:20:57.478Z,0.00
2019-05-25T02:35:57.597Z,0.00
2019-05-25T02:50:57.773Z,5.62
2019-05-25T03:05:57.906Z,16.88
2019-05-25T03:20:57.996Z,39.38
2019-05-25T03:35:58.108Z,67.50
2019-05-25T03:50:58.222Z,95.62
2019-05-25T04:05:58.330Z,129.38
2019-05-25T04:20:58.506Z,168.75
2019-05-25T04:35:58.629Z,185.62
2019-05-25T04:50:58.828Z,208.12
2019-05-25T05:05:58.951Z,230.62
2019-05-25T05:20:59.121Z,264.38
2019-05-25T05:35:59.267Z,303.75
2019-05-25T05:50:59.460Z,371.25
2019-05-25T06:05:59.588Z,613.12
2019-05-25T06:20:59.753Z,405.00
2019-05-25T06:35:59.926Z,388.12
2019-05-25T06:51:00.013Z,337.50
2019-05-25T07:06:00.217Z,247.50
2019-05-25T07:21:00.385Z,185.62
2019-05-25T07:36:00.552Z,236.25
2019-05-25T07:51:00.706Z,196.88
2019-05-25T08:06:00.886Z,202.50
2019-05-25T08:21:01.139Z,213.75
2019-05-25T08:36:01.268Z,511.88
2019-05-25T08:51:01.396Z,585.00
2019-05-25T09:06:01.531Z,405.00
2019-05-25T09:21:02.241Z,686.25
2019-05-25T09:36:02.568Z,472.50
2019-05-25T09:51:02.773Z,534.38
2019-05-25T10:06:10.822Z,320.62
2019-05-25T10:21:08.233Z,843.75
2019-05-25T10:36:08.387Z,562.50
2019-05-25T10:51:08.530Z,438.75
2019-05-25T11:06:08.709Z,658.12
2019-05-25T11:21:08.823Z,596.25
2019-05-25T11:36:09.027Z,652.50
2019-05-25T11:51:09.147Z,770.62
2019-05-25T12:06:09.274Z,517.50
2019-05-25T12:21:09.450Z,804.38
2019-05-25T12:36:09.585Z,410.62
2019-05-25T12:51:09.681Z,624.38
2019-05-25T13:06:09.847Z,556.88
2019-05-25T13:21:09.970Z,545.62
2019-05-25T13:36:10.185Z,635.62
2019-05-25T13:51:10.367Z,894.38
2019-05-25T14:06:10.507Z,382.50
2019-05-25T14:21:10.646Z,382.50
2019-05-25T14:36:11.791Z,646.88
2019-05-25T14:51:11.956Z,579.38
2019-05-25T15:06:12.115Z,556.88
2019-05-25T15:21:12.281Z,365.62
2019-05-25T15:36:12.434Z,286.88
2019-05-25T15:51:12.611Z,360.00
2019-05-25T16:06:12.845Z,303.75
2019-05-25T16:21:12.795Z,191.25
2019-05-25T16:36:12.911Z,230.62
2019-05-25T16:51:13.076Z,202.50
2019-05-25T17:06:13.246Z,208.12
2019-05-25T17:21:13.437Z,140.62
2019-05-25T17:36:13.653Z,101.25
2019-05-25T17:51:14.070Z,101.25
2019-05-25T18:06:14.181Z,90.00
2019-05-25T18:21:14.569Z,84.38
2019-05-25T18:36:14.593Z,61.88
2019-05-25T18:51:14.802Z,33.75
2019-05-25T19:06:15.022Z,11.25
2019-05-25T19:21:15.167Z,0.00
2019-05-25T19:36:15.300Z,0.00
2019-05-25T19:51:15.510Z,0.00
2019-05-25T20:06:15.660Z,0.00
2019-05-25T20:21:15.852Z,0.00
2019-05-25T20:36:16.077Z,0.00
2019-05-25T20:51:16.256Z,0.00
2019-05-25T21:06:16.377Z,0.00
2019-05-25T21:21:16.620Z,0.00
2019-05-25T21:36:16.809Z,0.00
2019-05-25T21:51:16.991Z,0.00
2019-05-25T22:06:24.137Z,0.00
2019-05-25T22:21:22.376Z,0.00
2019-05-25T22:36:22.543Z,0.00
2019-05-25T22:51:22.679Z,0.00
2019-05-25T23:06:22.861Z,0.00
2019-05-25T23:21:22.966Z,0.00
2019-05-25T23:36:23.182Z,0.00
2019-05-25T23:51:23.389Z,0.00
